Aérodrome :
LOGIN :

S'inscrire | Disclaimer

   EN    FR    IT 

 










Légende :    VFR   VFR Marginal   IFR   IFR Intensif   IFR Très Intensif
Visi : 
Plafond : 
>= 8 km
>= 3000ft
5 à 8 km
1000 à 3000 ft
1500m à 5 km
500 à 1000 ft
800 à 1500m
200 à 500 ft
< 800m
< 200 ft
Symboles :   Orages  Brouillard  Fortes neiges  Fortes précipitations  Vent > 20 kt
SIGMETs :   Divers  Orages  Givrage  Turbulence  Onde Orograph.  Cendres Volcan.






- Altitude de l'aérodrome : 776 ft
- Code IATA : RMS


ETAR - Ramstein Air Base

DERNIER METAR :
  • 280656Z AUTO 04010KT 9999 FEW050 16/08 A3042 RMK AO2 SLP300 T01630083 FZRANO $

METARs EXPIRÉS :
  • 280556Z AUTO 01009KT 9999 CLR 15/10 A3042 RMK AO2 SLP299 T01490103 10149 20096 52005 FZRANO $
  • 280456Z AUTO 00000KT 9999 CLR 10/10 A3041 RMK AO2 SLP298 T01000095 FZRANO $

TAF TAF ETAR
Valide du 28 à 02h jusqu'au 29 à 08h UTC


280200Z 2802/2908 VRB06KT 9999 BKN050 QNH3039INS
TEMPO 2806/2810 04010G20KT 510004
BECMG 2809/2810 04012G20KT 9999 SKC 510004 QNH3034INS
BECMG 2816/2817 06009KT 9999 SKC QNH3033INS TX22/2814Z TN08/2902Z



MET'MAP, la Météo Aéronautique d'un coup d'oeil ! - Copyright ORBIFLY Décembre 2007 - Disclaimer

ORBIFLY MET'MAP TEAM :

Programmation & Développement : Alexandra Zaïnal
Sur une idée originale de : Baudouin d'Aumeries
Assistance à la programmation : Marc-Olivier Méhu
Soutien technique & logistique : Manuel Goepfert

Contact : metmap@orbifly.com




SOURCES & CREDITS :

   NOAA